Terminal Aerodrome Forecast
Issued by NWS

Home | Current Version | Previous Version | Text Only | Print | Product List | Glossary On
Versions: 1 2 3 4 5 6 7 8 9 10 11 12 13 14 15 16 17 18
000
FTUS41 KPBZ 290528
TAFFKL
TAF
KFKL 290528Z 2906/3006 10010G16KT P6SM VCSH OVC020
     FM290900 10011G18KT 6SM -SHRA OVC015
      TEMPO 2909/2912 OVC008
     FM291500 10011G20KT 5SM -SHRA OVC010
     FM300100 10013G23KT 4SM -SHRA OVC008
      AMD LTD TO CLD VIS AND WIND=

USA.gov is the U.S. government's official web portal to all federal, state and local government web resources and services.